Главная страница
METAR-TAF:

METAR-TAF

Аэропорты :

Ушуая, Аргентина

широта: 54-48S, долгота: 068-19W, высота над уровнем моря: 16 м

Текущие метеонаблюдения

Эта сводка был подготовлена 51 минут назад, в 22:00 UTC
Ветер 14 Узел от юго-западный
Температура 10°C
Влажность 27%
Давление 1031 hPa
Видимость 10 км и более
Нет облачности ниже 1500 м, и нет кучево-дождевой облачности

METAR: SAWH 182200Z 23014KT CAVOK 10/M08 Q1031

Время: 19:51 (22:51 UTC)

Прогноз

Эта сводка был подготовлена 5 часа и 51 минут назад, в 17:00 UTC
Прогноз действительный с 18-го 18 UTC до 19-го 18 UTC
Ветер 10 Узел от западный
Видимость 10 км и более
Нет облачности ниже 1500 м, и нет кучево-дождевой облачности

TAF: SAWH 181700Z 1818/1918 27010KT CAVOK TX13/1819Z TNM01/1910Z

Метеонаблюдения и прогнозы для более 4000 аэропортов (сводки METAR и TAF).

Имеющиеся станции представлены на карте желтыми и красными точками.

Чтобы увидеть название станции, наведите на нее мышь.

Затем щелкните, чтобы увидеть метеонаблюдения и метеопрогнозы.

Управление картой: чтобы увеличить масштаб, щелкните зеленые кнопки с черным крестиком; чтобы уменьшить масштаб, щелкните зеленую кнопку с тире; для просмотра соседних карт щелкайте зеленые стрелки.


METAR-TAF: